sensor_id;sensor_type;location;lat;lon;timestamp;temperature;humidity
3360;DHT22;1693;49.602;11.046;2023-01-30T00:02:07;-4.90;99.90
3360;DHT22;1693;49.602;11.046;2023-01-30T00:04:35;-4.90;99.90
3360;DHT22;1693;49.602;11.046;2023-01-30T00:07:02;-4.80;99.90
3360;DHT22;1693;49.602;11.046;2023-01-30T00:09:31;-4.90;99.90
3360;DHT22;1693;49.602;11.046;2023-01-30T00:12:00;-4.90;99.90
3360;DHT22;1693;49.602;11.046;2023-01-30T00:14:29;-5.00;99.90
3360;DHT22;1693;49.602;11.046;2023-01-30T00:16:56;-5.00;99.90
3360;DHT22;1693;49.602;11.046;2023-01-30T00:19:26;-4.90;99.90
3360;DHT22;1693;49.602;11.046;2023-01-30T00:21:53;-4.90;99.90
3360;DHT22;1693;49.602;11.046;2023-01-30T00:24:22;-4.90;99.90
3360;DHT22;1693;49.602;11.046;2023-01-30T00:26:50;-4.90;99.90
3360;DHT22;1693;49.602;11.046;2023-01-30T00:29:19;-4.90;99.90
3360;DHT22;1693;49.602;11.046;2023-01-30T00:31:47;-4.80;99.90
3360;DHT22;1693;49.602;11.046;2023-01-30T00:34:15;-4.80;99.90
3360;DHT22;1693;49.602;11.046;2023-01-30T00:36:43;-4.70;99.90
3360;DHT22;1693;49.602;11.046;2023-01-30T00:39:15;-4.60;99.90
3360;DHT22;1693;49.602;11.046;2023-01-30T00:41:45;-4.40;99.90
3360;DHT22;1693;49.602;11.046;2023-01-30T00:44:30;-4.20;99.90
3360;DHT22;1693;49.602;11.046;2023-01-30T00:47:16;-4.10;99.90
3360;DHT22;1693;49.602;11.046;2023-01-30T00:49:43;-4.00;99.90
3360;DHT22;1693;49.602;11.046;2023-01-30T00:52:17;-4.00;99.90
3360;DHT22;1693;49.602;11.046;2023-01-30T00:54:45;-3.90;99.90
3360;DHT22;1693;49.602;11.046;2023-01-30T00:57:13;-3.80;99.90
3360;DHT22;1693;49.602;11.046;2023-01-30T00:59:46;-3.70;99.90
3360;DHT22;1693;49.602;11.046;2023-01-30T01:02:14;-3.60;99.90
3360;DHT22;1693;49.602;11.046;2023-01-30T01:04:45;-3.40;99.90
3360;DHT22;1693;49.602;11.046;2023-01-30T01:07:17;-3.40;99.90
3360;DHT22;1693;49.602;11.046;2023-01-30T01:09:46;-3.40;99.90
3360;DHT22;1693;49.602;11.046;2023-01-30T01:12:14;-3.40;99.90
3360;DHT22;1693;49.602;11.046;2023-01-30T01:14:44;-3.20;99.90
3360;DHT22;1693;49.602;11.046;2023-01-30T01:17:11;-3.20;99.90
3360;DHT22;1693;49.602;11.046;2023-01-30T01:19:38;-3.10;99.90
3360;DHT22;1693;49.602;11.046;2023-01-30T01:22:05;-2.90;99.90
3360;DHT22;1693;49.602;11.046;2023-01-30T01:24:35;-2.70;99.90
3360;DHT22;1693;49.602;11.046;2023-01-30T01:27:03;-2.60;99.90
3360;DHT22;1693;49.602;11.046;2023-01-30T01:29:31;-2.50;99.90
3360;DHT22;1693;49.602;11.046;2023-01-30T01:32:01;-2.40;99.90
3360;DHT22;1693;49.602;11.046;2023-01-30T01:34:29;-2.20;99.90
3360;DHT22;1693;49.602;11.046;2023-01-30T01:37:05;-2.10;99.90
3360;DHT22;1693;49.602;11.046;2023-01-30T01:39:35;-2.00;99.90
3360;DHT22;1693;49.602;11.046;2023-01-30T01:45:01;-1.80;99.90
3360;DHT22;1693;49.602;11.046;2023-01-30T01:47:36;-1.50;99.90
3360;DHT22;1693;49.602;11.046;2023-01-30T01:50:09;-1.40;99.90
3360;DHT22;1693;49.602;11.046;2023-01-30T01:52:39;-1.20;99.90
3360;DHT22;1693;49.602;11.046;2023-01-30T01:55:10;-1.10;99.90
3360;DHT22;1693;49.602;11.046;2023-01-30T01:57:40;-1.00;99.90
3360;DHT22;1693;49.602;11.046;2023-01-30T02:00:11;-0.90;99.90
3360;DHT22;1693;49.602;11.046;2023-01-30T02:02:41;-0.80;99.90
3360;DHT22;1693;49.602;11.046;2023-01-30T02:05:11;-0.70;99.90
3360;DHT22;1693;49.602;11.046;2023-01-30T02:07:46;-0.60;99.90
3360;DHT22;1693;49.602;11.046;2023-01-30T02:10:18;-0.60;99.90
3360;DHT22;1693;49.602;11.046;2023-01-30T02:12:49;-0.60;99.90
3360;DHT22;1693;49.602;11.046;2023-01-30T02:15:20;-0.60;99.90
3360;DHT22;1693;49.602;11.046;2023-01-30T02:17:48;-0.50;99.90
3360;DHT22;1693;49.602;11.046;2023-01-30T02:20:26;-0.50;99.90
3360;DHT22;1693;49.602;11.046;2023-01-30T02:23:40;-0.50;99.90
3360;DHT22;1693;49.602;11.046;2023-01-30T02:32:19;-0.40;99.90
3360;DHT22;1693;49.602;11.046;2023-01-30T02:34:56;-0.30;99.90
3360;DHT22;1693;49.602;11.046;2023-01-30T02:37:35;-0.30;99.90
3360;DHT22;1693;49.602;11.046;2023-01-30T02:40:17;-0.30;99.90
3360;DHT22;1693;49.602;11.046;2023-01-30T02:43:02;-0.30;99.90
3360;DHT22;1693;49.602;11.046;2023-01-30T02:45:36;-0.10;99.90
3360;DHT22;1693;49.602;11.046;2023-01-30T02:48:19;-0.20;99.90
3360;DHT22;1693;49.602;11.046;2023-01-30T02:50:54;0.00;99.90
3360;DHT22;1693;49.602;11.046;2023-01-30T02:53:26;0.00;99.90
3360;DHT22;1693;49.602;11.046;2023-01-30T02:55:55;0.00;99.90
3360;DHT22;1693;49.602;11.046;2023-01-30T02:58:26;0.00;99.90
3360;DHT22;1693;49.602;11.046;2023-01-30T03:01:15;0.10;99.90
3360;DHT22;1693;49.602;11.046;2023-01-30T03:04:18;0.20;99.90
3360;DHT22;1693;49.602;11.046;2023-01-30T03:07:06;0.10;99.90
3360;DHT22;1693;49.602;11.046;2023-01-30T03:09:42;0.20;99.90
3360;DHT22;1693;49.602;11.046;2023-01-30T03:12:17;0.30;99.90
3360;DHT22;1693;49.602;11.046;2023-01-30T03:14:51;0.30;99.90
3360;DHT22;1693;49.602;11.046;2023-01-30T03:17:23;0.30;99.90
3360;DHT22;1693;49.602;11.046;2023-01-30T03:19:54;0.40;99.90
3360;DHT22;1693;49.602;11.046;2023-01-30T03:22:23;0.40;99.90
3360;DHT22;1693;49.602;11.046;2023-01-30T03:24:52;0.30;99.90
3360;DHT22;1693;49.602;11.046;2023-01-30T03:27:20;0.30;99.90
3360;DHT22;1693;49.602;11.046;2023-01-30T03:29:49;0.30;99.90
3360;DHT22;1693;49.602;11.046;2023-01-30T03:32:18;0.30;99.90
3360;DHT22;1693;49.602;11.046;2023-01-30T03:34:46;0.40;99.90
3360;DHT22;1693;49.602;11.046;2023-01-30T03:37:18;0.40;99.90
3360;DHT22;1693;49.602;11.046;2023-01-30T03:39:48;0.40;99.90
3360;DHT22;1693;49.602;11.046;2023-01-30T03:42:15;0.50;99.90
3360;DHT22;1693;49.602;11.046;2023-01-30T03:44:42;0.50;99.90
3360;DHT22;1693;49.602;11.046;2023-01-30T03:47:12;0.50;99.90
3360;DHT22;1693;49.602;11.046;2023-01-30T03:49:40;0.60;99.90
3360;DHT22;1693;49.602;11.046;2023-01-30T03:52:08;0.60;99.90
3360;DHT22;1693;49.602;11.046;2023-01-30T03:54:38;0.60;99.90
3360;DHT22;1693;49.602;11.046;2023-01-30T03:57:05;0.70;99.90
3360;DHT22;1693;49.602;11.046;2023-01-30T03:59:33;0.80;99.90
3360;DHT22;1693;49.602;11.046;2023-01-30T04:02:00;0.80;99.90
3360;DHT22;1693;49.602;11.046;2023-01-30T04:04:28;0.80;99.90
3360;DHT22;1693;49.602;11.046;2023-01-30T04:06:59;0.90;99.90
3360;DHT22;1693;49.602;11.046;2023-01-30T04:09:27;0.80;99.90
3360;DHT22;1693;49.602;11.046;2023-01-30T04:11:58;0.80;99.90
3360;DHT22;1693;49.602;11.046;2023-01-30T04:14:30;0.60;99.90
3360;DHT22;1693;49.602;11.046;2023-01-30T04:16:58;0.70;99.90
3360;DHT22;1693;49.602;11.046;2023-01-30T04:19:29;0.80;99.90
3360;DHT22;1693;49.602;11.046;2023-01-30T04:21:57;0.80;99.90
3360;DHT22;1693;49.602;11.046;2023-01-30T04:24:25;0.70;99.90
3360;DHT22;1693;49.602;11.046;2023-01-30T04:26:53;0.80;99.90
3360;DHT22;1693;49.602;11.046;2023-01-30T04:29:22;0.80;99.90
3360;DHT22;1693;49.602;11.046;2023-01-30T04:31:49;0.90;99.90
3360;DHT22;1693;49.602;11.046;2023-01-30T04:34:20;0.90;99.90
3360;DHT22;1693;49.602;11.046;2023-01-30T04:36:48;0.90;99.90
3360;DHT22;1693;49.602;11.046;2023-01-30T04:39:16;0.80;99.90
3360;DHT22;1693;49.602;11.046;2023-01-30T04:41:45;0.90;99.90
3360;DHT22;1693;49.602;11.046;2023-01-30T04:44:12;0.90;99.90
3360;DHT22;1693;49.602;11.046;2023-01-30T04:46:44;0.90;99.90
3360;DHT22;1693;49.602;11.046;2023-01-30T04:49:12;0.90;99.90
3360;DHT22;1693;49.602;11.046;2023-01-30T04:51:40;0.90;99.90
3360;DHT22;1693;49.602;11.046;2023-01-30T04:54:11;1.00;99.90
3360;DHT22;1693;49.602;11.046;2023-01-30T04:56:40;1.00;99.90
3360;DHT22;1693;49.602;11.046;2023-01-30T04:59:07;1.00;99.90
3360;DHT22;1693;49.602;11.046;2023-01-30T05:01:37;1.00;99.90
3360;DHT22;1693;49.602;11.046;2023-01-30T05:04:06;1.00;99.90
3360;DHT22;1693;49.602;11.046;2023-01-30T05:06:35;0.90;99.90
3360;DHT22;1693;49.602;11.046;2023-01-30T05:09:04;1.00;99.90
3360;DHT22;1693;49.602;11.046;2023-01-30T05:11:32;1.00;99.90
3360;DHT22;1693;49.602;11.046;2023-01-30T05:14:01;0.90;99.90
3360;DHT22;1693;49.602;11.046;2023-01-30T05:16:29;0.90;99.90
3360;DHT22;1693;49.602;11.046;2023-01-30T05:18:57;1.00;99.90
3360;DHT22;1693;49.602;11.046;2023-01-30T05:21:29;0.90;99.90
3360;DHT22;1693;49.602;11.046;2023-01-30T05:23:58;0.90;99.90
3360;DHT22;1693;49.602;11.046;2023-01-30T05:26:26;0.90;99.90
3360;DHT22;1693;49.602;11.046;2023-01-30T05:28:56;0.80;99.90
3360;DHT22;1693;49.602;11.046;2023-01-30T05:31:25;0.80;99.90
3360;DHT22;1693;49.602;11.046;2023-01-30T05:33:52;0.80;99.90
3360;DHT22;1693;49.602;11.046;2023-01-30T05:36:21;0.70;99.90
3360;DHT22;1693;49.602;11.046;2023-01-30T05:38:51;0.70;99.90
3360;DHT22;1693;49.602;11.046;2023-01-30T05:41:19;0.70;99.90
3360;DHT22;1693;49.602;11.046;2023-01-30T05:43:49;0.70;99.90
3360;DHT22;1693;49.602;11.046;2023-01-30T05:46:16;0.70;99.90
3360;DHT22;1693;49.602;11.046;2023-01-30T05:48:43;0.70;99.90
3360;DHT22;1693;49.602;11.046;2023-01-30T05:51:19;0.70;99.90
3360;DHT22;1693;49.602;11.046;2023-01-30T05:53:48;0.70;99.90
3360;DHT22;1693;49.602;11.046;2023-01-30T05:56:19;0.80;99.90
3360;DHT22;1693;49.602;11.046;2023-01-30T05:58:50;0.80;99.90
3360;DHT22;1693;49.602;11.046;2023-01-30T06:01:18;0.70;99.90
3360;DHT22;1693;49.602;11.046;2023-01-30T06:03:47;0.70;99.90
3360;DHT22;1693;49.602;11.046;2023-01-30T06:06:14;0.70;99.90
3360;DHT22;1693;49.602;11.046;2023-01-30T06:08:43;0.70;99.90
3360;DHT22;1693;49.602;11.046;2023-01-30T06:11:13;0.70;99.90
3360;DHT22;1693;49.602;11.046;2023-01-30T06:13:43;0.70;99.90
3360;DHT22;1693;49.602;11.046;2023-01-30T06:16:12;0.80;99.90
3360;DHT22;1693;49.602;11.046;2023-01-30T06:18:41;0.80;99.90
3360;DHT22;1693;49.602;11.046;2023-01-30T06:21:08;0.80;99.90
3360;DHT22;1693;49.602;11.046;2023-01-30T06:23:35;0.80;99.90
3360;DHT22;1693;49.602;11.046;2023-01-30T06:26:04;0.80;99.90
3360;DHT22;1693;49.602;11.046;2023-01-30T06:28:31;0.80;99.90
3360;DHT22;1693;49.602;11.046;2023-01-30T06:30:59;0.90;99.90
3360;DHT22;1693;49.602;11.046;2023-01-30T06:33:26;0.90;99.90
3360;DHT22;1693;49.602;11.046;2023-01-30T06:35:55;1.00;99.90
3360;DHT22;1693;49.602;11.046;2023-01-30T06:38:23;1.00;99.90
3360;DHT22;1693;49.602;11.046;2023-01-30T06:40:52;1.00;99.90
3360;DHT22;1693;49.602;11.046;2023-01-30T06:43:22;1.00;99.90
3360;DHT22;1693;49.602;11.046;2023-01-30T06:45:53;1.10;99.90
3360;DHT22;1693;49.602;11.046;2023-01-30T06:48:26;1.00;99.90
3360;DHT22;1693;49.602;11.046;2023-01-30T06:50:54;1.10;99.90
3360;DHT22;1693;49.602;11.046;2023-01-30T06:53:23;1.10;99.90
3360;DHT22;1693;49.602;11.046;2023-01-30T06:55:56;1.20;99.90
3360;DHT22;1693;49.602;11.046;2023-01-30T06:58:25;1.20;99.90
3360;DHT22;1693;49.602;11.046;2023-01-30T07:00:54;1.20;99.90
3360;DHT22;1693;49.602;11.046;2023-01-30T07:03:25;1.20;99.90
3360;DHT22;1693;49.602;11.046;2023-01-30T07:05:52;1.20;99.90
3360;DHT22;1693;49.602;11.046;2023-01-30T07:08:20;1.30;99.90
3360;DHT22;1693;49.602;11.046;2023-01-30T07:10:48;1.30;99.90
3360;DHT22;1693;49.602;11.046;2023-01-30T07:13:16;1.30;99.90
3360;DHT22;1693;49.602;11.046;2023-01-30T07:15:44;1.30;99.90
3360;DHT22;1693;49.602;11.046;2023-01-30T07:18:12;1.30;99.90
3360;DHT22;1693;49.602;11.046;2023-01-30T07:20:45;1.30;99.90
3360;DHT22;1693;49.602;11.046;2023-01-30T07:23:12;1.30;99.90
3360;DHT22;1693;49.602;11.046;2023-01-30T07:25:41;1.20;99.90
3360;DHT22;1693;49.602;11.046;2023-01-30T07:28:09;1.30;99.90
3360;DHT22;1693;49.602;11.046;2023-01-30T07:30:39;1.30;99.90
3360;DHT22;1693;49.602;11.046;2023-01-30T07:33:07;1.30;99.90
3360;DHT22;1693;49.602;11.046;2023-01-30T07:35:41;1.30;99.90
3360;DHT22;1693;49.602;11.046;2023-01-30T07:38:08;1.20;99.90
3360;DHT22;1693;49.602;11.046;2023-01-30T07:40:37;1.30;99.90
3360;DHT22;1693;49.602;11.046;2023-01-30T07:43:08;1.30;99.90
3360;DHT22;1693;49.602;11.046;2023-01-30T07:45:39;1.40;99.90
3360;DHT22;1693;49.602;11.046;2023-01-30T07:48:07;1.40;99.90
3360;DHT22;1693;49.602;11.046;2023-01-30T07:50:37;1.40;99.90
3360;DHT22;1693;49.602;11.046;2023-01-30T07:53:12;1.40;99.90
3360;DHT22;1693;49.602;11.046;2023-01-30T07:55:44;1.40;99.90
3360;DHT22;1693;49.602;11.046;2023-01-30T07:58:13;1.40;99.90
3360;DHT22;1693;49.602;11.046;2023-01-30T08:00:42;1.30;99.90
3360;DHT22;1693;49.602;11.046;2023-01-30T08:03:11;1.40;99.90
3360;DHT22;1693;49.602;11.046;2023-01-30T08:05:40;1.40;99.90
3360;DHT22;1693;49.602;11.046;2023-01-30T08:08:11;1.40;99.90
3360;DHT22;1693;49.602;11.046;2023-01-30T08:10:39;1.50;99.90
3360;DHT22;1693;49.602;11.046;2023-01-30T08:13:07;1.40;99.90
3360;DHT22;1693;49.602;11.046;2023-01-30T08:15:36;1.50;99.90
3360;DHT22;1693;49.602;11.046;2023-01-30T08:18:03;1.50;99.90
3360;DHT22;1693;49.602;11.046;2023-01-30T08:20:33;1.50;99.90
3360;DHT22;1693;49.602;11.046;2023-01-30T08:23:00;1.50;99.90
3360;DHT22;1693;49.602;11.046;2023-01-30T08:25:30;1.50;99.90
3360;DHT22;1693;49.602;11.046;2023-01-30T08:27:58;1.50;99.90
3360;DHT22;1693;49.602;11.046;2023-01-30T08:30:27;1.50;99.90
3360;DHT22;1693;49.602;11.046;2023-01-30T08:32:56;1.50;99.90
3360;DHT22;1693;49.602;11.046;2023-01-30T08:35:23;1.60;99.90
3360;DHT22;1693;49.602;11.046;2023-01-30T08:37:50;1.60;99.90
3360;DHT22;1693;49.602;11.046;2023-01-30T08:40:18;1.60;99.90
3360;DHT22;1693;49.602;11.046;2023-01-30T08:42:47;1.50;99.90
3360;DHT22;1693;49.602;11.046;2023-01-30T08:45:18;1.50;99.90
3360;DHT22;1693;49.602;11.046;2023-01-30T08:47:45;1.60;99.90
3360;DHT22;1693;49.602;11.046;2023-01-30T08:50:16;1.60;99.90
3360;DHT22;1693;49.602;11.046;2023-01-30T08:52:43;1.50;99.90
3360;DHT22;1693;49.602;11.046;2023-01-30T08:55:10;1.50;99.90
3360;DHT22;1693;49.602;11.046;2023-01-30T08:57:38;1.40;99.90
3360;DHT22;1693;49.602;11.046;2023-01-30T09:00:10;1.30;99.90
3360;DHT22;1693;49.602;11.046;2023-01-30T09:02:39;1.30;99.90
3360;DHT22;1693;49.602;11.046;2023-01-30T09:05:08;1.30;99.90
3360;DHT22;1693;49.602;11.046;2023-01-30T09:07:35;1.30;99.90
3360;DHT22;1693;49.602;11.046;2023-01-30T09:10:04;1.30;99.90
3360;DHT22;1693;49.602;11.046;2023-01-30T09:12:32;1.30;99.90
3360;DHT22;1693;49.602;11.046;2023-01-30T09:15:00;1.20;99.90
3360;DHT22;1693;49.602;11.046;2023-01-30T09:17:30;1.20;99.90
3360;DHT22;1693;49.602;11.046;2023-01-30T09:19:58;1.20;99.90
3360;DHT22;1693;49.602;11.046;2023-01-30T09:22:25;1.30;99.90
3360;DHT22;1693;49.602;11.046;2023-01-30T09:24:52;1.40;99.90
3360;DHT22;1693;49.602;11.046;2023-01-30T09:27:20;1.40;99.90
3360;DHT22;1693;49.602;11.046;2023-01-30T09:29:52;1.40;99.90
3360;DHT22;1693;49.602;11.046;2023-01-30T09:32:20;1.40;99.90
3360;DHT22;1693;49.602;11.046;2023-01-30T09:34:56;1.40;99.90
3360;DHT22;1693;49.602;11.046;2023-01-30T09:37:23;1.40;99.90
3360;DHT22;1693;49.602;11.046;2023-01-30T09:39:51;1.50;99.90
3360;DHT22;1693;49.602;11.046;2023-01-30T09:42:43;1.60;99.90
3360;DHT22;1693;49.602;11.046;2023-01-30T09:45:41;1.70;99.90
3360;DHT22;1693;49.602;11.046;2023-01-30T09:48:27;1.80;99.90
3360;DHT22;1693;49.602;11.046;2023-01-30T09:51:41;1.80;99.90
3360;DHT22;1693;49.602;11.046;2023-01-30T09:54:22;1.80;99.90
3360;DHT22;1693;49.602;11.046;2023-01-30T09:57:09;1.90;99.90
3360;DHT22;1693;49.602;11.046;2023-01-30T09:59:42;1.90;99.90
3360;DHT22;1693;49.602;11.046;2023-01-30T10:05:06;1.90;99.90
3360;DHT22;1693;49.602;11.046;2023-01-30T10:08:00;1.90;99.90
3360;DHT22;1693;49.602;11.046;2023-01-30T10:10:44;1.90;99.90
3360;DHT22;1693;49.602;11.046;2023-01-30T10:13:26;2.00;99.90
3360;DHT22;1693;49.602;11.046;2023-01-30T10:16:00;2.00;99.90
3360;DHT22;1693;49.602;11.046;2023-01-30T10:19:11;2.10;99.90
3360;DHT22;1693;49.602;11.046;2023-01-30T10:21:49;2.00;99.90
3360;DHT22;1693;49.602;11.046;2023-01-30T10:24:30;2.10;99.90
3360;DHT22;1693;49.602;11.046;2023-01-30T10:27:03;2.10;99.90
3360;DHT22;1693;49.602;11.046;2023-01-30T10:29:34;2.10;99.90
3360;DHT22;1693;49.602;11.046;2023-01-30T10:32:11;2.10;99.90
3360;DHT22;1693;49.602;11.046;2023-01-30T10:34:44;2.20;99.90
3360;DHT22;1693;49.602;11.046;2023-01-30T10:37:17;2.10;99.90
3360;DHT22;1693;49.602;11.046;2023-01-30T10:39:58;2.10;99.90
3360;DHT22;1693;49.602;11.046;2023-01-30T10:42:34;2.10;99.90
3360;DHT22;1693;49.602;11.046;2023-01-30T10:45:11;2.10;99.90
3360;DHT22;1693;49.602;11.046;2023-01-30T10:47:48;2.20;99.90
3360;DHT22;1693;49.602;11.046;2023-01-30T10:50:29;2.20;99.90
3360;DHT22;1693;49.602;11.046;2023-01-30T10:53:14;2.20;99.90
3360;DHT22;1693;49.602;11.046;2023-01-30T10:55:47;2.20;99.90
3360;DHT22;1693;49.602;11.046;2023-01-30T10:58:22;2.20;99.90
3360;DHT22;1693;49.602;11.046;2023-01-30T11:00:59;2.20;99.90
3360;DHT22;1693;49.602;11.046;2023-01-30T11:03:34;2.20;99.90
3360;DHT22;1693;49.602;11.046;2023-01-30T11:06:06;2.20;99.90
3360;DHT22;1693;49.602;11.046;2023-01-30T11:08:38;2.30;99.90
3360;DHT22;1693;49.602;11.046;2023-01-30T11:11:26;2.40;99.90
3360;DHT22;1693;49.602;11.046;2023-01-30T11:14:04;2.40;99.90
3360;DHT22;1693;49.602;11.046;2023-01-30T11:16:40;2.30;99.90
3360;DHT22;1693;49.602;11.046;2023-01-30T11:19:11;2.30;99.90
3360;DHT22;1693;49.602;11.046;2023-01-30T11:21:47;2.30;99.90
3360;DHT22;1693;49.602;11.046;2023-01-30T11:24:19;2.20;99.90
3360;DHT22;1693;49.602;11.046;2023-01-30T11:26:48;2.20;99.90
3360;DHT22;1693;49.602;11.046;2023-01-30T11:29:27;2.20;99.90
3360;DHT22;1693;49.602;11.046;2023-01-30T11:31:55;2.30;99.90
3360;DHT22;1693;49.602;11.046;2023-01-30T11:34:23;2.30;99.90
3360;DHT22;1693;49.602;11.046;2023-01-30T11:36:52;2.30;99.90
3360;DHT22;1693;49.602;11.046;2023-01-30T11:39:22;2.20;99.90
3360;DHT22;1693;49.602;11.046;2023-01-30T11:42:00;2.10;99.90
3360;DHT22;1693;49.602;11.046;2023-01-30T11:44:34;2.10;99.90
3360;DHT22;1693;49.602;11.046;2023-01-30T11:47:08;2.10;99.90
3360;DHT22;1693;49.602;11.046;2023-01-30T11:49:40;2.10;99.90
3360;DHT22;1693;49.602;11.046;2023-01-30T11:52:15;2.00;99.90
3360;DHT22;1693;49.602;11.046;2023-01-30T11:54:44;2.00;99.90
3360;DHT22;1693;49.602;11.046;2023-01-30T11:57:17;2.00;99.90
3360;DHT22;1693;49.602;11.046;2023-01-30T11:59:52;2.00;99.90
3360;DHT22;1693;49.602;11.046;2023-01-30T12:02:24;1.90;99.90
3360;DHT22;1693;49.602;11.046;2023-01-30T12:04:55;1.90;99.90
3360;DHT22;1693;49.602;11.046;2023-01-30T12:07:25;1.90;99.90
3360;DHT22;1693;49.602;11.046;2023-01-30T12:09:56;1.90;99.90
3360;DHT22;1693;49.602;11.046;2023-01-30T12:12:32;2.00;99.90
3360;DHT22;1693;49.602;11.046;2023-01-30T12:15:13;2.00;99.90
3360;DHT22;1693;49.602;11.046;2023-01-30T12:17:52;2.00;99.90
3360;DHT22;1693;49.602;11.046;2023-01-30T12:20:29;2.10;99.90
3360;DHT22;1693;49.602;11.046;2023-01-30T12:23:08;2.10;99.90
3360;DHT22;1693;49.602;11.046;2023-01-30T12:25:43;2.20;99.90
3360;DHT22;1693;49.602;11.046;2023-01-30T12:28:21;2.20;99.90
3360;DHT22;1693;49.602;11.046;2023-01-30T12:30:54;2.30;99.90
3360;DHT22;1693;49.602;11.046;2023-01-30T12:33:34;2.40;99.90
3360;DHT22;1693;49.602;11.046;2023-01-30T12:36:12;2.50;99.90
3360;DHT22;1693;49.602;11.046;2023-01-30T12:38:55;2.60;99.90
3360;DHT22;1693;49.602;11.046;2023-01-30T12:41:39;2.60;99.90
3360;DHT22;1693;49.602;11.046;2023-01-30T12:44:37;2.70;99.90
3360;DHT22;1693;49.602;11.046;2023-01-30T12:47:25;2.60;99.90
3360;DHT22;1693;49.602;11.046;2023-01-30T12:50:23;2.50;99.90
3360;DHT22;1693;49.602;11.046;2023-01-30T12:53:06;2.50;99.90
3360;DHT22;1693;49.602;11.046;2023-01-30T12:55:52;2.50;99.90
3360;DHT22;1693;49.602;11.046;2023-01-30T12:58:23;2.60;99.90
3360;DHT22;1693;49.602;11.046;2023-01-30T13:01:02;2.60;99.90
3360;DHT22;1693;49.602;11.046;2023-01-30T13:03:36;2.60;99.90
3360;DHT22;1693;49.602;11.046;2023-01-30T13:06:14;2.60;99.90
3360;DHT22;1693;49.602;11.046;2023-01-30T13:08:57;2.70;99.90
3360;DHT22;1693;49.602;11.046;2023-01-30T13:11:39;2.70;99.90
3360;DHT22;1693;49.602;11.046;2023-01-30T13:14:17;2.70;99.90
3360;DHT22;1693;49.602;11.046;2023-01-30T13:17:00;2.80;99.90
3360;DHT22;1693;49.602;11.046;2023-01-30T13:19:36;2.80;99.90
3360;DHT22;1693;49.602;11.046;2023-01-30T13:22:09;2.80;99.90
3360;DHT22;1693;49.602;11.046;2023-01-30T13:24:47;2.80;99.90
3360;DHT22;1693;49.602;11.046;2023-01-30T13:27:20;2.80;99.90
3360;DHT22;1693;49.602;11.046;2023-01-30T13:29:49;2.80;99.90
3360;DHT22;1693;49.602;11.046;2023-01-30T13:32:29;2.90;99.90
3360;DHT22;1693;49.602;11.046;2023-01-30T13:35:03;2.90;99.90
3360;DHT22;1693;49.602;11.046;2023-01-30T13:37:33;3.00;99.90
3360;DHT22;1693;49.602;11.046;2023-01-30T13:40:07;2.90;99.90
3360;DHT22;1693;49.602;11.046;2023-01-30T13:42:42;2.90;99.90
3360;DHT22;1693;49.602;11.046;2023-01-30T13:45:14;2.90;99.90
3360;DHT22;1693;49.602;11.046;2023-01-30T13:47:51;3.00;99.90
3360;DHT22;1693;49.602;11.046;2023-01-30T13:50:40;2.90;99.90
3360;DHT22;1693;49.602;11.046;2023-01-30T13:53:17;2.80;99.90
3360;DHT22;1693;49.602;11.046;2023-01-30T13:55:53;2.90;99.90
3360;DHT22;1693;49.602;11.046;2023-01-30T13:58:37;3.10;99.90
3360;DHT22;1693;49.602;11.046;2023-01-30T14:01:08;3.30;99.90
3360;DHT22;1693;49.602;11.046;2023-01-30T14:03:38;3.30;99.90
3360;DHT22;1693;49.602;11.046;2023-01-30T14:06:25;3.60;99.90
3360;DHT22;1693;49.602;11.046;2023-01-30T14:08:56;3.40;99.90
3360;DHT22;1693;49.602;11.046;2023-01-30T14:11:29;3.30;99.90
3360;DHT22;1693;49.602;11.046;2023-01-30T14:14:01;3.40;99.90
3360;DHT22;1693;49.602;11.046;2023-01-30T14:16:43;3.50;99.90
3360;DHT22;1693;49.602;11.046;2023-01-30T14:19:39;3.50;99.90
3360;DHT22;1693;49.602;11.046;2023-01-30T14:22:26;3.60;99.90
3360;DHT22;1693;49.602;11.046;2023-01-30T14:31:49;3.70;99.90
3360;DHT22;1693;49.602;11.046;2023-01-30T14:34:49;3.70;99.90
3360;DHT22;1693;49.602;11.046;2023-01-30T14:40:47;3.40;99.90
3360;DHT22;1693;49.602;11.046;2023-01-30T14:43:36;3.50;99.90
3360;DHT22;1693;49.602;11.046;2023-01-30T14:46:05;3.50;99.90
3360;DHT22;1693;49.602;11.046;2023-01-30T14:48:37;3.40;99.90
3360;DHT22;1693;49.602;11.046;2023-01-30T14:51:22;3.40;99.90
3360;DHT22;1693;49.602;11.046;2023-01-30T14:53:53;3.20;99.90
3360;DHT22;1693;49.602;11.046;2023-01-30T14:56:36;3.10;99.90
3360;DHT22;1693;49.602;11.046;2023-01-30T14:59:09;3.10;99.90
3360;DHT22;1693;49.602;11.046;2023-01-30T15:01:57;3.00;99.90
3360;DHT22;1693;49.602;11.046;2023-01-30T15:04:26;3.00;99.90
3360;DHT22;1693;49.602;11.046;2023-01-30T15:06:58;3.10;99.90
3360;DHT22;1693;49.602;11.046;2023-01-30T15:09:28;3.10;99.90
3360;DHT22;1693;49.602;11.046;2023-01-30T15:12:16;3.10;99.90
3360;DHT22;1693;49.602;11.046;2023-01-30T15:14:55;3.10;99.90
3360;DHT22;1693;49.602;11.046;2023-01-30T15:17:29;3.10;99.90
3360;DHT22;1693;49.602;11.046;2023-01-30T15:23:09;3.20;99.90
3360;DHT22;1693;49.602;11.046;2023-01-30T15:25:56;3.20;99.90
3360;DHT22;1693;49.602;11.046;2023-01-30T15:28:35;3.20;99.90
3360;DHT22;1693;49.602;11.046;2023-01-30T15:31:11;3.20;99.90
3360;DHT22;1693;49.602;11.046;2023-01-30T15:33:43;3.30;99.90
3360;DHT22;1693;49.602;11.046;2023-01-30T15:36:33;3.30;99.90
3360;DHT22;1693;49.602;11.046;2023-01-30T15:39:04;3.30;99.90
3360;DHT22;1693;49.602;11.046;2023-01-30T15:41:36;3.30;99.90
3360;DHT22;1693;49.602;11.046;2023-01-30T15:44:19;3.30;99.90
3360;DHT22;1693;49.602;11.046;2023-01-30T15:46:54;3.30;99.90
3360;DHT22;1693;49.602;11.046;2023-01-30T15:49:46;3.20;99.90
3360;DHT22;1693;49.602;11.046;2023-01-30T15:52:17;3.20;99.90
3360;DHT22;1693;49.602;11.046;2023-01-30T15:54:50;3.10;99.90
3360;DHT22;1693;49.602;11.046;2023-01-30T15:57:22;3.10;99.90
3360;DHT22;1693;49.602;11.046;2023-01-30T15:59:52;3.20;99.90
3360;DHT22;1693;49.602;11.046;2023-01-30T16:02:25;3.20;99.90
3360;DHT22;1693;49.602;11.046;2023-01-30T16:05:03;3.10;99.90
3360;DHT22;1693;49.602;11.046;2023-01-30T16:07:31;3.10;99.90
3360;DHT22;1693;49.602;11.046;2023-01-30T16:10:00;3.10;99.90
3360;DHT22;1693;49.602;11.046;2023-01-30T16:12:29;3.10;99.90
3360;DHT22;1693;49.602;11.046;2023-01-30T16:14:57;3.10;99.90
3360;DHT22;1693;49.602;11.046;2023-01-30T16:17:26;3.10;99.90
3360;DHT22;1693;49.602;11.046;2023-01-30T16:19:55;3.10;99.90
3360;DHT22;1693;49.602;11.046;2023-01-30T16:22:23;3.10;99.90
3360;DHT22;1693;49.602;11.046;2023-01-30T16:24:52;3.20;99.90
3360;DHT22;1693;49.602;11.046;2023-01-30T16:27:26;3.10;99.90
3360;DHT22;1693;49.602;11.046;2023-01-30T16:29:57;3.10;99.90
3360;DHT22;1693;49.602;11.046;2023-01-30T16:32:27;3.20;99.90
3360;DHT22;1693;49.602;11.046;2023-01-30T16:35:24;3.20;99.90
3360;DHT22;1693;49.602;11.046;2023-01-30T16:37:54;3.10;99.90
3360;DHT22;1693;49.602;11.046;2023-01-30T16:40:25;3.20;99.90
3360;DHT22;1693;49.602;11.046;2023-01-30T16:42:57;3.10;99.90
3360;DHT22;1693;49.602;11.046;2023-01-30T16:48:32;3.20;99.90
3360;DHT22;1693;49.602;11.046;2023-01-30T16:51:15;3.20;99.90
3360;DHT22;1693;49.602;11.046;2023-01-30T16:53:48;3.20;99.90
3360;DHT22;1693;49.602;11.046;2023-01-30T16:56:17;3.10;99.90
3360;DHT22;1693;49.602;11.046;2023-01-30T16:58:49;3.20;99.90
3360;DHT22;1693;49.602;11.046;2023-01-30T17:01:17;3.20;99.90
3360;DHT22;1693;49.602;11.046;2023-01-30T17:03:50;3.20;99.90
3360;DHT22;1693;49.602;11.046;2023-01-30T17:06:33;3.20;99.90